Time;durP1;ratioP1;P1;durP2;ratioP2;P2;SDS_P1;SDS_P2;PMS_P1;PMS_P2;Temp;Humidity;BMP_temperature;BMP_pressure;BME280_temperature;BME280_humidity;BME280_pressure;Samples;Min_cycle;Max_cycle;Signal;HPM_P1;HPM_P2
2022/02/11 00:05:12;;;;;;;;;;;4.90;99.90;;;;;;5095778;28;19920;-78
2022/02/11 00:07:17;;;;;;;;;;;4.90;99.90;;;;;;5094172;28;19952;-77
2022/02/11 00:09:42;;;;;;;;;;;5.00;99.90;;;;;;5076539;28;20042;-78
2022/02/11 00:12:08;;;;;;;;;;;5.10;99.90;;;;;;5096107;28;20304;-78
2022/02/11 00:14:42;;;;;;;;;;;5.20;99.90;;;;;;5113255;28;20390;-78
2022/02/11 00:17:08;;;;;;;;;;;5.20;99.90;;;;;;5111579;28;20230;-78
2022/02/11 00:19:34;;;;;;;;;;;5.30;99.90;;;;;;5096874;28;19908;-78
2022/02/11 00:21:59;;;;;;;;;;;5.30;99.90;;;;;;5077854;28;19919;-78
2022/02/11 00:24:25;;;;;;;;;;;5.30;99.90;;;;;;5094500;28;20011;-78
2022/02/11 00:27:15;;;;;;;;;;;5.30;99.90;;;;;;5096631;28;20328;-79
2022/02/11 00:32:38;;;;;;;;;;;5.20;99.90;;;;;;5094724;28;19920;-79
2022/02/11 00:35:14;;;;;;;;;;;5.20;99.90;;;;;;5076440;28;19970;-78
2022/02/11 00:37:41;;;;;;;;;;;5.20;99.90;;;;;;5106511;28;19912;-78
2022/02/11 01:03:59;;;;;;;;;;;4.80;99.90;;;;;;5098391;28;20011;-78
2022/02/11 01:06:25;;;;;;;;;;;4.90;99.90;;;;;;5094987;28;20341;-79
2022/02/11 01:08:51;;;;;;;;;;;4.90;99.90;;;;;;5112858;28;19934;-77
2022/02/11 01:11:27;;;;;;;;;;;5.00;99.90;;;;;;5108918;28;20292;-78
2022/02/11 01:13:53;;;;;;;;;;;5.00;99.90;;;;;;5114138;28;20363;-80
2022/02/11 01:16:24;;;;;;;;;;;5.00;99.90;;;;;;5085825;28;19927;-79
2022/02/11 01:19:00;;;;;;;;;;;5.00;99.90;;;;;;5085120;28;19920;-81
2022/02/11 01:21:38;;;;;;;;;;;5.00;99.90;;;;;;5079787;28;21474;-77
2022/02/11 01:24:20;;;;;;;;;;;4.90;99.90;;;;;;5079632;28;19915;-79
2022/02/11 01:27:01;;;;;;;;;;;4.90;99.90;;;;;;5110586;28;19913;-78
2022/02/11 01:30:02;;;;;;;;;;;4.90;99.90;;;;;;5080895;28;19916;-79
2022/02/11 01:35:20;;;;;;;;;;;4.80;99.90;;;;;;5098948;28;19930;-81
2022/02/11 01:38:20;;;;;;;;;;;4.70;99.90;;;;;;5113241;28;19958;-81
2022/02/11 01:53:19;;;;;;;;;;;4.80;99.90;;;;;;5115617;28;20010;-81
2022/02/11 01:58:55;;;;;;;;;;;4.90;99.90;;;;;;5103718;28;19916;-80
2022/02/11 02:20:29;;;;;;;;;;;5.10;99.90;;;;;;5101518;28;19923;-80
2022/02/11 02:25:40;;;;;;;;;;;5.10;99.90;;;;;;5097401;28;19981;-82
2022/02/11 02:33:57;;;;;;;;;;;5.20;99.90;;;;;;5098334;28;20026;-82
2022/02/11 02:36:57;;;;;;;;;;;5.20;99.90;;;;;;5091358;28;19912;-83
2022/02/11 02:56:33;;;;;;;;;;;5.20;99.90;;;;;;5097677;28;20008;-76
2022/02/11 02:58:31;;;;;;;;;;;5.20;99.90;;;;;;5116451;28;19926;-78
2022/02/11 03:50:45;;;;;;;;;;;4.80;99.90;;;;;;5114611;28;19988;-80
2022/02/11 04:20:39;;;;;;;;;;;4.90;99.90;;;;;;5109365;28;19923;-83
2022/02/11 05:00:05;;;;;;;;;;;4.90;99.90;;;;;;5099882;28;20340;-81
2022/02/11 05:02:35;;;;;;;;;;;4.90;99.90;;;;;;5080507;28;19966;-80
2022/02/11 05:05:04;;;;;;;;;;;4.90;99.90;;;;;;5092496;28;20370;-81
2022/02/11 05:07:29;;;;;;;;;;;4.60;99.90;;;;;;5103944;28;20250;-81
2022/02/11 05:09:55;;;;;;;;;;;4.50;99.90;;;;;;5118019;28;19946;-80
2022/02/11 05:12:21;;;;;;;;;;;4.50;99.90;;;;;;5096194;28;19912;-81
2022/02/11 05:14:46;;;;;;;;;;;4.40;99.90;;;;;;5098545;28;20018;-80
2022/02/11 05:17:12;;;;;;;;;;;4.40;99.90;;;;;;5110438;28;19913;-80
2022/02/11 05:19:37;;;;;;;;;;;4.50;99.90;;;;;;5109961;28;19920;-79
2022/02/11 05:22:03;;;;;;;;;;;4.60;99.90;;;;;;5100016;28;19986;-81
2022/02/11 05:24:29;;;;;;;;;;;4.70;99.90;;;;;;5094937;28;19938;-80
2022/02/11 05:26:54;;;;;;;;;;;4.70;99.90;;;;;;5098265;28;20049;-79
2022/02/11 05:29:20;;;;;;;;;;;4.80;99.90;;;;;;5098181;28;19908;-82
2022/02/11 05:31:45;;;;;;;;;;;4.80;99.90;;;;;;5097619;28;20307;-81
2022/02/11 05:34:11;;;;;;;;;;;4.70;99.90;;;;;;5085005;28;19930;-79
2022/02/11 05:36:36;;;;;;;;;;;4.70;99.90;;;;;;5101745;28;19935;-80
2022/02/11 05:39:02;;;;;;;;;;;4.60;99.90;;;;;;5097299;28;19908;-80
2022/02/11 05:41:28;;;;;;;;;;;4.60;99.90;;;;;;5097354;28;19923;-77
2022/02/11 05:43:53;;;;;;;;;;;4.60;99.90;;;;;;5097925;28;19958;-79
2022/02/11 05:46:20;;;;;;;;;;;4.60;99.90;;;;;;5115678;28;20330;-79
2022/02/11 05:48:46;;;;;;;;;;;4.50;99.90;;;;;;5111390;28;20355;-79
2022/02/11 05:51:11;;;;;;;;;;;4.40;99.90;;;;;;5097602;28;19946;-80
2022/02/11 05:53:37;;;;;;;;;;;4.30;99.90;;;;;;5116290;28;19924;-78
2022/02/11 05:56:03;;;;;;;;;;;4.20;99.90;;;;;;5085133;28;19923;-80
2022/02/11 05:58:28;;;;;;;;;;;4.20;99.90;;;;;;5081978;28;19948;-78
2022/02/11 06:00:54;;;;;;;;;;;4.20;99.90;;;;;;5097991;28;19923;-78
2022/02/11 06:03:20;;;;;;;;;;;4.10;99.90;;;;;;5117329;28;19951;-77
2022/02/11 06:05:45;;;;;;;;;;;4.10;99.90;;;;;;5116894;28;19954;-79
2022/02/11 06:08:11;;;;;;;;;;;4.00;99.90;;;;;;5079027;28;19934;-78
2022/02/11 06:10:37;;;;;;;;;;;4.00;99.90;;;;;;5097383;28;19938;-78
2022/02/11 06:13:03;;;;;;;;;;;4.00;99.90;;;;;;5104614;28;19916;-77
2022/02/11 06:15:28;;;;;;;;;;;4.00;99.90;;;;;;5117208;28;19911;-78
2022/02/11 06:17:54;;;;;;;;;;;4.00;99.90;;;;;;5087848;28;19923;-77
2022/02/11 06:20:27;;;;;;;;;;;4.00;99.90;;;;;;5106398;28;19911;-77
2022/02/11 06:22:53;;;;;;;;;;;4.00;99.90;;;;;;5083215;28;19953;-78
2022/02/11 06:25:19;;;;;;;;;;;3.80;99.90;;;;;;5117575;28;20292;-79
2022/02/11 06:27:44;;;;;;;;;;;3.90;99.90;;;;;;5087235;28;19995;-80
2022/02/11 06:30:10;;;;;;;;;;;4.00;99.90;;;;;;5080167;28;19916;-77
2022/02/11 06:32:36;;;;;;;;;;;3.90;99.90;;;;;;5098503;28;19919;-78
2022/02/11 06:35:01;;;;;;;;;;;3.90;99.90;;;;;;5116932;28;19922;-79
2022/02/11 06:37:27;;;;;;;;;;;3.80;99.90;;;;;;5099751;28;19924;-78
2022/02/11 06:39:53;;;;;;;;;;;3.80;99.90;;;;;;5106680;28;19991;-78
2022/02/11 06:42:18;;;;;;;;;;;3.90;99.90;;;;;;5098148;27;20306;-77
2022/02/11 06:44:44;;;;;;;;;;;4.00;99.90;;;;;;5116158;28;20540;-77
2022/02/11 06:47:09;;;;;;;;;;;4.00;99.90;;;;;;5096841;28;19930;-77
2022/02/11 06:49:35;;;;;;;;;;;4.00;99.90;;;;;;5114338;28;19912;-78
2022/02/11 06:52:00;;;;;;;;;;;4.10;99.90;;;;;;5109445;28;19912;-77
2022/02/11 06:54:26;;;;;;;;;;;4.10;99.90;;;;;;5114652;28;19926;-77
2022/02/11 06:56:51;;;;;;;;;;;4.10;99.90;;;;;;5117208;27;20014;-79
2022/02/11 06:59:17;;;;;;;;;;;4.30;99.90;;;;;;5096010;28;20622;-79
2022/02/11 07:01:42;;;;;;;;;;;4.20;99.90;;;;;;5096638;28;20007;-78
2022/02/11 07:04:08;;;;;;;;;;;4.20;99.90;;;;;;5115551;27;20006;-77
2022/02/11 07:06:33;;;;;;;;;;;4.20;99.90;;;;;;5095779;28;19920;-76
2022/02/11 07:08:59;;;;;;;;;;;4.20;99.90;;;;;;5112590;28;19912;-79
2022/02/11 07:11:25;;;;;;;;;;;4.20;99.90;;;;;;5094886;28;19912;-78
2022/02/11 07:13:50;;;;;;;;;;;4.20;99.90;;;;;;5096831;28;19911;-79
2022/02/11 07:16:16;;;;;;;;;;;4.20;99.90;;;;;;5114554;28;19960;-80
2022/02/11 07:18:42;;;;;;;;;;;4.20;99.90;;;;;;5100191;28;20026;-78
2022/02/11 07:21:08;;;;;;;;;;;4.10;99.90;;;;;;5113430;27;19974;-77
2022/02/11 07:23:34;;;;;;;;;;;4.00;99.90;;;;;;5115188;27;20004;-78
2022/02/11 07:26:00;;;;;;;;;;;4.00;99.90;;;;;;5098884;27;19915;-78
2022/02/11 07:28:25;;;;;;;;;;;4.00;99.90;;;;;;5115127;28;20041;-80
2022/02/11 07:30:51;;;;;;;;;;;4.00;99.90;;;;;;5113501;28;19915;-79
2022/02/11 07:33:17;;;;;;;;;;;4.00;99.90;;;;;;5115888;27;19908;-79
2022/02/11 07:35:44;;;;;;;;;;;4.00;99.90;;;;;;5111853;28;20252;-78
2022/02/11 07:38:10;;;;;;;;;;;4.00;99.90;;;;;;5097098;28;19915;-80
2022/02/11 07:40:39;;;;;;;;;;;4.00;99.90;;;;;;5113623;27;19916;-79
2022/02/11 07:43:04;;;;;;;;;;;4.10;99.90;;;;;;5113157;28;20003;-79
2022/02/11 07:45:30;;;;;;;;;;;4.10;99.90;;;;;;5115961;28;20361;-78
2022/02/11 07:47:56;;;;;;;;;;;4.20;99.90;;;;;;5078427;28;19912;-78
2022/02/11 07:50:22;;;;;;;;;;;4.30;99.90;;;;;;5095527;28;19908;-78
2022/02/11 07:52:47;;;;;;;;;;;4.30;99.90;;;;;;5092574;28;19920;-79
2022/02/11 07:55:13;;;;;;;;;;;4.30;99.90;;;;;;5097525;28;19964;-78
2022/02/11 07:57:39;;;;;;;;;;;4.20;99.90;;;;;;5115353;28;20006;-78
2022/02/11 08:00:05;;;;;;;;;;;4.20;99.90;;;;;;5117286;28;19912;-79
2022/02/11 08:02:32;;;;;;;;;;;4.20;99.90;;;;;;5117342;28;20298;-79
2022/02/11 08:04:57;;;;;;;;;;;4.20;99.90;;;;;;5120275;27;19919;-77
2022/02/11 08:07:23;;;;;;;;;;;4.40;99.90;;;;;;5103641;28;19912;-79
2022/02/11 08:09:48;;;;;;;;;;;4.50;99.90;;;;;;5099058;28;20250;-77
2022/02/11 08:12:15;;;;;;;;;;;4.50;99.90;;;;;;5114021;28;20311;-79
2022/02/11 08:14:40;;;;;;;;;;;4.50;99.90;;;;;;5117968;28;19951;-78
2022/02/11 08:17:06;;;;;;;;;;;4.50;99.90;;;;;;5118494;28;19947;-78
2022/02/11 08:19:31;;;;;;;;;;;4.60;99.90;;;;;;5112822;28;19950;-78
2022/02/11 08:21:57;;;;;;;;;;;4.70;99.90;;;;;;5099524;28;20303;-78
2022/02/11 08:24:22;;;;;;;;;;;4.80;99.90;;;;;;5098985;28;19965;-77
2022/02/11 08:26:48;;;;;;;;;;;4.80;99.90;;;;;;5072917;28;20100;-77
2022/02/11 08:29:14;;;;;;;;;;;4.90;99.90;;;;;;5091467;28;19990;-78
2022/02/11 08:31:42;;;;;;;;;;;5.00;99.90;;;;;;5101930;28;20005;-76
2022/02/11 08:34:07;;;;;;;;;;;5.00;99.90;;;;;;5119452;28;19912;-79
2022/02/11 08:36:33;;;;;;;;;;;5.00;99.90;;;;;;5118901;28;19915;-78
2022/02/11 08:38:58;;;;;;;;;;;5.10;99.90;;;;;;5119056;28;19911;-77
2022/02/11 08:41:24;;;;;;;;;;;5.10;99.90;;;;;;5100386;28;19915;-78
2022/02/11 08:43:49;;;;;;;;;;;5.10;99.90;;;;;;5093168;28;19911;-77
2022/02/11 08:46:15;;;;;;;;;;;5.10;99.90;;;;;;5099385;28;19911;-77
2022/02/11 08:48:40;;;;;;;;;;;5.10;99.90;;;;;;5116968;28;19919;-77
2022/02/11 08:51:06;;;;;;;;;;;5.10;99.90;;;;;;5098942;28;19968;-77
2022/02/11 08:53:33;;;;;;;;;;;4.90;99.90;;;;;;5097976;28;19911;-77
2022/02/11 08:55:59;;;;;;;;;;;4.80;99.90;;;;;;5117459;28;19926;-78
2022/02/11 08:58:24;;;;;;;;;;;4.70;99.90;;;;;;5093299;28;20227;-76
2022/02/11 09:00:50;;;;;;;;;;;4.70;99.90;;;;;;5100125;28;19943;-77
2022/02/11 09:03:16;;;;;;;;;;;4.70;99.90;;;;;;5112539;28;19919;-77
2022/02/11 09:05:42;;;;;;;;;;;4.80;99.90;;;;;;5082778;28;19916;-77
2022/02/11 09:08:07;;;;;;;;;;;5.00;99.90;;;;;;5117339;28;19958;-77
2022/02/11 09:10:33;;;;;;;;;;;5.00;99.90;;;;;;5097069;28;20027;-77
2022/02/11 09:13:00;;;;;;;;;;;4.90;99.90;;;;;;5096145;28;19912;-76
2022/02/11 09:15:26;;;;;;;;;;;4.90;99.90;;;;;;5116546;28;20291;-78
2022/02/11 09:17:52;;;;;;;;;;;4.90;99.90;;;;;;5116665;28;19963;-78
2022/02/11 09:20:18;;;;;;;;;;;5.00;99.90;;;;;;5116896;28;20337;-77
2022/02/11 09:22:44;;;;;;;;;;;5.10;99.90;;;;;;5114493;28;20326;-78
2022/02/11 09:25:11;;;;;;;;;;;5.40;99.90;;;;;;5095855;28;19915;-77
2022/02/11 09:27:43;;;;;;;;;;;5.70;99.90;;;;;;5112638;28;19926;-77
2022/02/11 09:30:12;;;;;;;;;;;5.70;99.90;;;;;;5094329;28;20238;-77
2022/02/11 09:32:37;;;;;;;;;;;5.50;99.90;;;;;;5093528;28;19915;-76
2022/02/11 09:35:03;;;;;;;;;;;5.40;99.90;;;;;;5116166;28;20018;-77
2022/02/11 09:37:28;;;;;;;;;;;5.30;99.90;;;;;;5116120;28;19911;-76
2022/02/11 09:39:54;;;;;;;;;;;5.20;99.90;;;;;;5090721;28;19922;-76
2022/02/11 09:42:20;;;;;;;;;;;5.10;99.90;;;;;;5115953;28;19951;-76
2022/02/11 09:44:46;;;;;;;;;;;5.00;99.90;;;;;;5115972;28;20010;-76
2022/02/11 09:47:12;;;;;;;;;;;5.00;99.90;;;;;;5097649;28;19916;-76
2022/02/11 09:49:37;;;;;;;;;;;5.00;99.90;;;;;;5117376;28;19922;-76
2022/02/11 09:52:05;;;;;;;;;;;5.10;99.90;;;;;;5108311;28;20010;-76
2022/02/11 09:54:32;;;;;;;;;;;5.10;99.90;;;;;;5095743;28;19974;-77
2022/02/11 09:56:58;;;;;;;;;;;5.00;99.90;;;;;;5117112;27;20381;-77
2022/02/11 09:59:23;;;;;;;;;;;5.10;99.90;;;;;;5101757;28;19977;-77
2022/02/11 10:01:50;;;;;;;;;;;5.10;99.90;;;;;;5110015;28;20302;-75
2022/02/11 10:04:16;;;;;;;;;;;5.10;99.90;;;;;;5111806;28;19916;-77
2022/02/11 10:06:43;;;;;;;;;;;5.40;99.90;;;;;;5089700;28;20184;-77
2022/02/11 10:09:09;;;;;;;;;;;5.60;99.90;;;;;;5087612;28;20302;-77
2022/02/11 10:11:35;;;;;;;;;;;5.90;99.90;;;;;;5112119;28;19937;-76
2022/02/11 10:14:20;;;;;;;;;;;5.90;99.90;;;;;;5106351;28;20015;-77
2022/02/11 10:16:52;;;;;;;;;;;6.00;99.90;;;;;;5091468;28;19912;-77
2022/02/11 10:19:38;;;;;;;;;;;6.00;99.90;;;;;;5093383;28;19951;-77
2022/02/11 10:22:23;;;;;;;;;;;6.10;99.90;;;;;;5089754;28;19918;-77
2022/02/11 10:24:49;;;;;;;;;;;6.10;99.90;;;;;;5086532;28;19916;-77
2022/02/11 10:27:18;;;;;;;;;;;6.10;99.90;;;;;;5103765;28;19962;-77
2022/02/11 10:29:44;;;;;;;;;;;6.10;99.90;;;;;;5088451;28;19916;-76
2022/02/11 10:32:10;;;;;;;;;;;6.30;99.90;;;;;;5105906;28;20254;-77
2022/02/11 10:34:39;;;;;;;;;;;6.30;99.90;;;;;;5105725;28;19945;-77
2022/02/11 10:37:08;;;;;;;;;;;6.40;99.90;;;;;;5088345;28;19986;-76
2022/02/11 10:39:37;;;;;;;;;;;6.60;99.90;;;;;;5107954;28;19912;-77
2022/02/11 10:42:08;;;;;;;;;;;6.70;99.90;;;;;;5087564;28;19915;-77
2022/02/11 10:44:36;;;;;;;;;;;6.60;99.90;;;;;;5088833;28;19916;-76
2022/02/11 10:47:08;;;;;;;;;;;6.30;99.90;;;;;;5090721;28;19919;-78
2022/02/11 10:49:34;;;;;;;;;;;6.10;99.90;;;;;;5105314;28;20282;-77
2022/02/11 10:52:10;;;;;;;;;;;6.10;99.90;;;;;;5104342;28;19922;-77
2022/02/11 10:54:35;;;;;;;;;;;6.00;99.90;;;;;;5091011;28;19972;-78
2022/02/11 10:57:02;;;;;;;;;;;6.00;99.90;;;;;;5088050;28;19920;-77
2022/02/11 10:59:30;;;;;;;;;;;6.00;99.90;;;;;;5104125;28;19984;-76
2022/02/11 11:01:57;;;;;;;;;;;6.00;99.90;;;;;;5084956;28;19920;-77
2022/02/11 11:04:23;;;;;;;;;;;5.90;99.90;;;;;;5089323;28;19916;-78
2022/02/11 11:06:49;;;;;;;;;;;5.90;99.90;;;;;;5104249;28;19927;-77
2022/02/11 11:09:16;;;;;;;;;;;6.00;99.90;;;;;;5097120;28;19912;-77
2022/02/11 11:11:45;;;;;;;;;;;6.00;99.90;;;;;;5085653;28;19920;-77
2022/02/11 11:14:15;;;;;;;;;;;6.10;99.90;;;;;;5111431;28;19923;-78
2022/02/11 11:16:41;;;;;;;;;;;6.10;99.90;;;;;;5082471;28;19916;-77
2022/02/11 11:19:07;;;;;;;;;;;6.10;99.90;;;;;;5077611;28;19908;-78
2022/02/11 11:21:39;;;;;;;;;;;6.30;99.90;;;;;;5087220;28;19922;-78
2022/02/11 11:24:05;;;;;;;;;;;6.40;99.90;;;;;;5107173;28;19925;-78
2022/02/11 11:26:49;;;;;;;;;;;6.30;99.90;;;;;;5106039;28;20215;-76
2022/02/11 11:29:15;;;;;;;;;;;6.20;99.90;;;;;;5084712;28;19973;-77
2022/02/11 11:31:58;;;;;;;;;;;6.20;99.90;;;;;;5108826;28;20366;-77
2022/02/11 11:34:24;;;;;;;;;;;6.40;99.90;;;;;;5086093;28;19920;-78
2022/02/11 11:36:54;;;;;;;;;;;6.90;99.90;;;;;;5104698;28;20226;-77
2022/02/11 11:39:20;;;;;;;;;;;6.90;99.90;;;;;;5104207;28;20313;-78
2022/02/11 11:42:06;;;;;;;;;;;7.00;99.90;;;;;;5106386;28;19916;-78
2022/02/11 11:44:46;;;;;;;;;;;6.90;99.90;;;;;;5089410;28;19912;-78
2022/02/11 11:47:13;;;;;;;;;;;6.80;99.90;;;;;;5076718;28;20241;-78
2022/02/11 11:49:40;;;;;;;;;;;6.60;99.90;;;;;;5106262;28;19923;-77
2022/02/11 11:52:06;;;;;;;;;;;6.50;99.90;;;;;;5094612;28;19920;-79
2022/02/11 11:54:32;;;;;;;;;;;6.60;99.90;;;;;;5089578;28;19915;-78
2022/02/11 11:57:14;;;;;;;;;;;6.60;99.90;;;;;;5108189;28;20042;-78
2022/02/11 11:59:44;;;;;;;;;;;6.50;99.90;;;;;;5105314;28;19919;-78
2022/02/11 12:02:13;;;;;;;;;;;6.40;99.90;;;;;;5090119;28;19922;-78
2022/02/11 12:04:41;;;;;;;;;;;6.30;99.90;;;;;;5086799;28;19956;-78
2022/02/11 12:07:15;;;;;;;;;;;6.10;99.90;;;;;;5094699;28;19926;-78
2022/02/11 12:09:49;;;;;;;;;;;6.30;99.90;;;;;;5104926;28;19915;-78
2022/02/11 12:12:18;;;;;;;;;;;6.50;99.90;;;;;;5085929;28;19955;-77
2022/02/11 12:14:44;;;;;;;;;;;6.70;99.90;;;;;;5073224;28;19964;-78
2022/02/11 12:17:10;;;;;;;;;;;6.80;99.90;;;;;;5113680;28;19923;-77
2022/02/11 12:19:37;;;;;;;;;;;6.80;99.90;;;;;;5100110;28;19915;-77
2022/02/11 12:22:05;;;;;;;;;;;6.80;99.90;;;;;;5108336;28;20372;-76
2022/02/11 12:27:21;;;;;;;;;;;6.80;99.90;;;;;;5102380;28;20318;-78
2022/02/11 12:29:51;;;;;;;;;;;6.80;99.90;;;;;;5100332;28;19923;-76
2022/02/11 12:32:18;;;;;;;;;;;6.80;99.90;;;;;;5103357;28;19916;-76
2022/02/11 12:34:50;;;;;;;;;;;6.80;99.90;;;;;;5081389;28;20041;-76
2022/02/11 12:37:17;;;;;;;;;;;6.90;99.90;;;;;;5107169;28;20374;-76
2022/02/11 12:39:42;;;;;;;;;;;6.90;99.90;;;;;;5102399;28;19927;-77
2022/02/11 12:42:08;;;;;;;;;;;7.10;99.90;;;;;;5101791;28;19920;-77
2022/02/11 12:44:33;;;;;;;;;;;7.20;99.90;;;;;;5103409;28;20006;-77
2022/02/11 12:47:00;;;;;;;;;;;7.00;99.90;;;;;;5101315;28;19916;-78
2022/02/11 12:49:26;;;;;;;;;;;7.10;99.90;;;;;;5077895;28;19920;-77
2022/02/11 12:51:53;;;;;;;;;;;7.20;99.90;;;;;;5094924;28;19957;-77
2022/02/11 12:54:19;;;;;;;;;;;7.10;99.90;;;;;;5080701;28;19927;-76
2022/02/11 12:56:49;;;;;;;;;;;7.10;99.90;;;;;;5115379;28;19931;-77
2022/02/11 12:59:15;;;;;;;;;;;7.30;99.90;;;;;;5115339;28;19912;-77
2022/02/11 13:01:40;;;;;;;;;;;7.40;99.90;;;;;;5130899;22;20363;-76
2022/02/11 13:04:06;;;;;;;;;;;7.40;99.90;;;;;;5090880;28;19916;-77
2022/02/11 13:06:32;;;;;;;;;;;7.50;99.90;;;;;;5114820;28;19965;-77
2022/02/11 13:09:05;;;;;;;;;;;7.60;99.90;;;;;;5104355;28;19984;-79
2022/02/11 13:11:31;;;;;;;;;;;7.50;99.90;;;;;;5099531;28;20261;-77
2022/02/11 13:14:00;;;;;;;;;;;7.20;99.90;;;;;;5094461;28;19916;-77
2022/02/11 13:16:26;;;;;;;;;;;6.90;99.90;;;;;;5094221;28;19912;-77
2022/02/11 13:18:51;;;;;;;;;;;6.60;99.90;;;;;;5094626;28;19923;-78
2022/02/11 13:21:20;;;;;;;;;;;6.60;99.90;;;;;;5102341;28;19998;-77
2022/02/11 13:23:49;;;;;;;;;;;6.40;99.90;;;;;;5115126;28;19908;-76
2022/02/11 13:26:16;;;;;;;;;;;6.30;99.90;;;;;;5096924;28;19981;-78
2022/02/11 13:28:43;;;;;;;;;;;6.20;99.90;;;;;;5096539;28;20199;-77
2022/02/11 13:31:08;;;;;;;;;;;6.20;99.90;;;;;;5114574;28;19915;-77
2022/02/11 13:33:35;;;;;;;;;;;6.30;99.90;;;;;;5114663;28;19908;-77
2022/02/11 13:36:03;;;;;;;;;;;6.60;99.90;;;;;;5096517;28;20016;-77
2022/02/11 13:38:30;;;;;;;;;;;6.70;99.90;;;;;;5096393;28;20364;-77
2022/02/11 13:41:09;;;;;;;;;;;6.70;99.90;;;;;;5096305;28;19918;-77
2022/02/11 13:43:54;;;;;;;;;;;6.70;99.90;;;;;;5075829;28;19916;-76
2022/02/11 13:46:23;;;;;;;;;;;6.80;99.90;;;;;;5093983;28;19947;-77
2022/02/11 13:49:02;;;;;;;;;;;6.80;99.90;;;;;;5094138;28;19968;-77
2022/02/11 13:51:28;;;;;;;;;;;6.80;99.90;;;;;;5094456;28;19927;-77
2022/02/11 13:53:54;;;;;;;;;;;7.00;99.90;;;;;;5101538;28;19920;-77
2022/02/11 13:56:24;;;;;;;;;;;6.80;99.90;;;;;;5073412;28;19959;-76
2022/02/11 13:59:02;;;;;;;;;;;6.50;99.90;;;;;;5109833;28;19942;-77
2022/02/11 14:01:28;;;;;;;;;;;6.30;99.90;;;;;;5087269;28;19927;-76
2022/02/11 14:03:58;;;;;;;;;;;6.10;99.90;;;;;;5106514;28;19916;-77
2022/02/11 14:06:23;;;;;;;;;;;5.90;99.90;;;;;;5113357;27;19916;-77
2022/02/11 14:08:49;;;;;;;;;;;5.80;99.90;;;;;;5105225;28;19923;-77
2022/02/11 14:11:21;;;;;;;;;;;5.60;99.90;;;;;;5103244;28;19916;-77
2022/02/11 14:13:47;;;;;;;;;;;5.60;99.90;;;;;;5102306;28;20006;-77
2022/02/11 14:16:15;;;;;;;;;;;5.50;99.90;;;;;;5094295;28;19943;-76
2022/02/11 14:18:42;;;;;;;;;;;5.40;99.90;;;;;;5087923;28;20214;-76
2022/02/11 14:21:16;;;;;;;;;;;5.40;99.90;;;;;;5103966;28;19912;-77
2022/02/11 14:23:41;;;;;;;;;;;5.30;99.90;;;;;;5085593;28;19951;-76
2022/02/11 14:26:07;;;;;;;;;;;5.30;99.90;;;;;;5085827;28;19947;-77
2022/02/11 14:28:34;;;;;;;;;;;5.30;99.90;;;;;;5097582;28;19958;-77
2022/02/11 14:31:00;;;;;;;;;;;5.50;99.90;;;;;;5087802;28;19916;-76
2022/02/11 14:33:25;;;;;;;;;;;5.80;99.90;;;;;;5079538;28;19927;-77
2022/02/11 14:35:51;;;;;;;;;;;6.10;99.90;;;;;;5094393;28;19961;-77
2022/02/11 14:38:17;;;;;;;;;;;6.30;99.90;;;;;;5107636;28;19915;-77
2022/02/11 14:43:43;;;;;;;;;;;6.50;99.90;;;;;;5023533;28;19917;-77
2022/02/11 14:46:09;;;;;;;;;;;6.40;99.90;;;;;;5067474;28;19953;-77
2022/02/11 14:48:34;;;;;;;;;;;6.30;99.90;;;;;;5092127;28;19960;-76
2022/02/11 14:51:00;;;;;;;;;;;6.30;99.90;;;;;;5091043;28;19912;-76
2022/02/11 14:53:26;;;;;;;;;;;6.10;99.90;;;;;;5106431;27;19920;-76
2022/02/11 14:55:51;;;;;;;;;;;5.90;99.90;;;;;;5100393;28;19915;-76
2022/02/11 14:58:17;;;;;;;;;;;5.90;99.90;;;;;;5096359;28;19951;-77
2022/02/11 15:00:42;;;;;;;;;;;5.90;99.90;;;;;;5087637;28;20014;-77
2022/02/11 15:03:09;;;;;;;;;;;5.80;99.90;;;;;;5092717;28;20455;-77
2022/02/11 15:05:34;;;;;;;;;;;5.60;99.90;;;;;;5089309;28;19915;-77
2022/02/11 15:08:00;;;;;;;;;;;5.70;99.90;;;;;;5106055;28;19918;-77
2022/02/11 15:10:26;;;;;;;;;;;5.90;99.90;;;;;;5105934;27;19916;-77
2022/02/11 15:12:52;;;;;;;;;;;5.90;99.90;;;;;;5098284;28;19947;-77
2022/02/11 15:15:17;;;;;;;;;;;5.90;99.90;;;;;;5102754;28;19970;-76
2022/02/11 15:17:43;;;;;;;;;;;5.90;99.90;;;;;;5079531;28;19924;-76
2022/02/11 15:20:09;;;;;;;;;;;5.90;99.90;;;;;;5102905;28;19919;-76
2022/02/11 15:22:34;;;;;;;;;;;5.90;99.90;;;;;;5103136;28;19912;-76
2022/02/11 15:25:00;;;;;;;;;;;5.90;99.90;;;;;;5104663;28;19956;-76
2022/02/11 15:27:26;;;;;;;;;;;5.90;99.90;;;;;;5090357;28;20037;-77
2022/02/11 15:29:51;;;;;;;;;;;5.90;99.90;;;;;;5100872;28;19999;-76
2022/02/11 15:32:17;;;;;;;;;;;5.90;99.90;;;;;;5082992;28;19950;-75
2022/02/11 15:34:44;;;;;;;;;;;5.80;99.90;;;;;;5083829;28;19920;-76
2022/02/11 15:37:10;;;;;;;;;;;5.80;99.90;;;;;;5100217;28;19919;-76
2022/02/11 15:39:35;;;;;;;;;;;5.80;99.90;;;;;;5101628;28;20025;-76
2022/02/11 15:42:01;;;;;;;;;;;5.90;99.90;;;;;;5104072;28;19959;-76
2022/02/11 15:44:27;;;;;;;;;;;5.90;99.90;;;;;;5083812;28;19920;-76
2022/02/11 15:46:52;;;;;;;;;;;5.90;99.90;;;;;;5084392;28;19916;-76
2022/02/11 15:49:18;;;;;;;;;;;5.80;99.90;;;;;;5115599;27;20302;-76
2022/02/11 15:51:43;;;;;;;;;;;5.70;99.90;;;;;;5101750;28;19915;-77
2022/02/11 15:54:09;;;;;;;;;;;5.70;99.90;;;;;;5100969;28;20019;-76
2022/02/11 15:56:35;;;;;;;;;;;5.60;99.90;;;;;;5101240;28;19931;-77
2022/02/11 15:59:00;;;;;;;;;;;5.50;99.90;;;;;;5099560;28;19916;-76
2022/02/11 16:01:26;;;;;;;;;;;5.50;99.90;;;;;;5103075;28;20391;-75
2022/02/11 16:03:51;;;;;;;;;;;5.30;99.90;;;;;;5106697;28;19916;-76
2022/02/11 16:06:17;;;;;;;;;;;5.20;99.90;;;;;;5084801;28;20062;-76
2022/02/11 16:08:42;;;;;;;;;;;5.00;99.90;;;;;;5100560;28;19916;-77
2022/02/11 16:11:08;;;;;;;;;;;4.90;99.90;;;;;;5101083;28;20023;-76
2022/02/11 16:13:33;;;;;;;;;;;4.80;99.90;;;;;;5101945;28;19927;-76
2022/02/11 16:15:59;;;;;;;;;;;4.70;99.90;;;;;;5100221;28;19920;-76
2022/02/11 16:18:25;;;;;;;;;;;4.50;99.90;;;;;;5081120;28;19916;-76
2022/02/11 16:20:51;;;;;;;;;;;4.40;99.90;;;;;;5099685;28;19920;-77
2022/02/11 16:23:17;;;;;;;;;;;4.30;99.90;;;;;;5101552;28;19926;-76
2022/02/11 16:25:44;;;;;;;;;;;4.10;99.90;;;;;;5083815;28;19966;-77
2022/02/11 16:28:10;;;;;;;;;;;4.00;99.90;;;;;;5074611;28;19927;-76
2022/02/11 16:30:37;;;;;;;;;;;3.90;99.90;;;;;;5111510;28;19923;-77
2022/02/11 16:33:03;;;;;;;;;;;3.70;99.90;;;;;;5092851;28;19916;-76
2022/02/11 16:35:29;;;;;;;;;;;3.60;99.90;;;;;;5088827;28;19919;-76
2022/02/11 16:37:54;;;;;;;;;;;3.50;99.90;;;;;;5110508;28;19928;-77
2022/02/11 16:40:20;;;;;;;;;;;3.40;99.90;;;;;;5112713;28;20496;-76
2022/02/11 16:42:46;;;;;;;;;;;3.20;99.90;;;;;;5112286;28;19927;-77
2022/02/11 16:45:11;;;;;;;;;;;3.20;99.90;;;;;;5115044;28;19953;-76
2022/02/11 16:47:38;;;;;;;;;;;3.00;99.90;;;;;;5106230;27;19912;-77
2022/02/11 16:50:05;;;;;;;;;;;2.90;99.90;;;;;;5110031;28;19918;-77
2022/02/11 16:52:33;;;;;;;;;;;2.80;99.90;;;;;;5084095;28;19923;-77
2022/02/11 16:55:02;;;;;;;;;;;2.80;99.90;;;;;;5105531;27;20378;-77
2022/02/11 16:57:28;;;;;;;;;;;2.70;99.90;;;;;;5093665;28;19919;-76
2022/02/11 16:59:54;;;;;;;;;;;2.60;99.90;;;;;;5095996;28;19949;-76
2022/02/11 17:02:20;;;;;;;;;;;2.60;99.90;;;;;;5085457;28;20350;-77
2022/02/11 17:04:47;;;;;;;;;;;2.50;99.90;;;;;;5094477;28;19923;-77
2022/02/11 17:07:12;;;;;;;;;;;2.50;99.90;;;;;;5112829;28;19927;-77
2022/02/11 17:09:38;;;;;;;;;;;2.40;99.90;;;;;;5084966;28;19946;-77
2022/02/11 17:12:04;;;;;;;;;;;2.40;99.90;;;;;;5084495;28;20041;-77
2022/02/11 17:14:30;;;;;;;;;;;2.40;99.90;;;;;;5081198;28;20012;-77
2022/02/11 17:16:55;;;;;;;;;;;2.40;99.90;;;;;;5093915;28;20010;-77
2022/02/11 17:19:22;;;;;;;;;;;2.30;99.90;;;;;;5100819;28;19916;-77
2022/02/11 17:21:48;;;;;;;;;;;2.20;99.90;;;;;;5101026;28;20011;-77
2022/02/11 17:24:15;;;;;;;;;;;2.20;99.90;;;;;;5104317;28;19959;-77
2022/02/11 17:26:41;;;;;;;;;;;2.20;99.90;;;;;;5096503;28;19916;-77
2022/02/11 17:29:06;;;;;;;;;;;2.20;99.90;;;;;;5099824;28;20436;-77
2022/02/11 17:31:32;;;;;;;;;;;2.20;99.90;;;;;;5094515;28;20008;-77
2022/02/11 17:33:57;;;;;;;;;;;2.20;99.90;;;;;;5095772;28;19974;-76
2022/02/11 17:36:23;;;;;;;;;;;2.20;99.90;;;;;;5090134;28;19955;-76
2022/02/11 17:38:48;;;;;;;;;;;2.00;99.90;;;;;;5089934;28;20209;-76
2022/02/11 17:41:14;;;;;;;;;;;1.90;99.90;;;;;;5103366;28;19961;-77
2022/02/11 17:43:40;;;;;;;;;;;1.90;99.90;;;;;;5097162;28;19920;-76
2022/02/11 17:46:06;;;;;;;;;;;2.00;99.90;;;;;;5114456;28;19974;-77
2022/02/11 17:48:31;;;;;;;;;;;2.00;99.90;;;;;;5114114;28;19923;-76
2022/02/11 17:50:57;;;;;;;;;;;2.10;99.90;;;;;;5113520;28;20210;-77
2022/02/11 17:53:23;;;;;;;;;;;2.10;99.90;;;;;;5093984;28;19915;-76
2022/02/11 17:55:49;;;;;;;;;;;2.10;99.90;;;;;;5105098;28;20222;-76
2022/02/11 17:58:16;;;;;;;;;;;2.00;99.90;;;;;;5102952;28;19927;-77
2022/02/11 18:00:41;;;;;;;;;;;1.90;99.90;;;;;;5104797;28;19934;-77
2022/02/11 18:03:07;;;;;;;;;;;1.80;99.90;;;;;;5106472;27;20730;-76
2022/02/11 18:05:32;;;;;;;;;;;1.70;99.90;;;;;;5103612;27;19939;-77